Lafayette, Colorado
Current Conditions -  °F | °C
As of 9:55 AM on Tuesday 27 Jan 2015 (Local Time) from KEIK Reporting Station
Clear Clear  
Wind Chill: 54°   Ceiling: Unl
Heat Index: 54°   Visibility: 10mi
Dew Point: 22°   Wind: 0mph
Humidity: 29%   Direction: NA
Pressure: 30.14"   Gusts: NA
Location:  39.99°N, 105.09°W
Report Text: KEIK 271655Z AUTO 00000KT 10SM CLR 12/M05 A3014 RMK AO2 T01231054
Loading
Personal Weather Stations






























Interactive Weather Map New forecast layout! Learn more

10-Day Weather Forecast

Advertisements
Track Severe Weather on mobile